Time;durP1;ratioP1;P1;durP2;ratioP2;P2;SDS_P1;SDS_P2;PMS_P1;PMS_P2;Temp;Humidity;BMP_temperature;BMP_pressure;BME280_temperature;BME280_humidity;BME280_pressure;Samples;Min_cycle;Max_cycle;Signal;HPM_P1;HPM_P2
2024/01/19 00:01:53;;;;;;;11.33;6.63;;;;;;;-143.21;83.96;71852.06;4918513;29;20636;-94
2024/01/19 00:04:22;;;;;;;9.90;6.70;;;;;;;-143.21;83.93;71842.16;4913791;29;20226;-95
2024/01/19 00:06:49;;;;;;;13.67;6.30;;;;;;;-143.21;84.45;71858.03;4913865;29;20772;-95
2024/01/19 00:09:17;;;;;;;8.87;6.13;;;;;;;-143.21;84.75;71860.00;4914015;29;20213;-96
2024/01/19 00:11:44;;;;;;;8.53;6.27;;;;;;;-143.21;85.74;71883.81;4913248;29;20212;-94
2024/01/19 00:14:11;;;;;;;10.13;6.57;;;;;;;-143.21;85.79;71891.72;4911374;29;20214;-94
2024/01/19 00:16:59;;;;;;;11.43;6.97;;;;;;;-143.21;87.00;71909.56;4912276;29;20222;-95
2024/01/19 00:19:30;;;;;;;9.97;6.80;;;;;;;-143.21;87.04;71913.53;4913337;29;20207;-94
2024/01/19 00:24:39;;;;;;;13.87;7.27;;;;;;;-143.21;87.67;71909.56;4908965;29;20262;-96
2024/01/19 00:27:06;;;;;;;11.67;7.63;;;;;;;-143.21;88.11;71921.47;4913940;29;20217;-95
2024/01/19 00:29:34;;;;;;;11.80;7.80;;;;;;;-143.21;88.45;71929.41;4915012;29;20274;-95
2024/01/19 00:32:01;;;;;;;11.17;7.57;;;;;;;-143.21;88.40;71921.47;4915660;29;20199;-96
2024/01/19 00:34:28;;;;;;;9.67;7.00;;;;;;;-143.21;88.77;71935.34;4918009;29;20256;-96
2024/01/19 00:36:57;;;;;;;12.27;7.33;;;;;;;-143.21;89.13;71925.44;4930046;28;20199;-95
2024/01/19 00:39:24;;;;;;;10.17;6.80;;;;;;;-143.21;89.55;71935.34;4923219;29;20753;-96
2024/01/19 00:41:52;;;;;;;11.33;7.03;;;;;;;-143.21;89.68;71925.44;4922050;29;20198;-94
2024/01/19 00:44:33;;;;;;;14.60;7.07;;;;;;;-143.21;89.71;71931.38;4924419;29;20211;-95
2024/01/19 00:47:00;;;;;;;8.60;6.27;;;;;;;-143.21;90.13;71937.34;4916792;29;20237;-95
2024/01/19 00:49:28;;;;;;;11.03;6.50;;;;;;;-143.21;89.86;71943.28;4914859;29;20207;-95
2024/01/19 00:52:01;;;;;;;10.70;6.80;;;;;;;-143.21;90.50;71931.38;4930147;29;20270;-93
2024/01/19 00:57:16;;;;;;;9.43;6.57;;;;;;;-143.21;90.17;71933.38;4927336;28;20214;-96
2024/01/19 00:59:46;;;;;;;11.43;7.20;;;;;;;-143.21;90.40;71957.16;4921405;29;20199;-95
2024/01/19 01:02:13;;;;;;;11.87;7.00;;;;;;;-143.21;90.18;71947.25;4918781;29;20301;-94
2024/01/19 01:04:52;;;;;;;10.00;6.43;;;;;;;-143.21;91.19;71959.16;4916708;29;20277;-96
2024/01/19 01:09:49;;;;;;;10.80;6.47;;;;;;;-143.21;91.97;71980.97;4967316;23;20234;-95
2024/01/19 01:12:16;;;;;;;9.97;6.67;;;;;;;-143.21;92.08;71967.09;4935370;29;20222;-94
2024/01/19 01:14:47;;;;;;;9.03;6.03;;;;;;;-143.21;91.50;71957.16;4936591;29;20210;-96
2024/01/19 01:17:15;;;;;;;8.53;6.13;;;;;;;-143.21;91.91;71967.09;4933559;23;20230;-95
2024/01/19 01:19:52;;;;;;;;;;;;;;;;;;;;;
2024/01/19 01:22:22;;;;;;;8.27;5.80;;;;;;;-143.21;91.58;71957.16;4932730;29;20210;-94
2024/01/19 01:24:52;;;;;;;9.93;5.90;;;;;;;-143.21;91.16;71963.13;4933989;29;20218;-95
2024/01/19 01:27:29;;;;;;;9.43;6.37;;;;;;;-143.21;91.71;71959.16;4933907;29;20293;-94
2024/01/19 01:29:56;;;;;;;8.03;6.20;;;;;;;-143.21;91.60;71967.09;4937093;29;21558;-94
2024/01/19 01:32:23;;;;;;;7.90;6.20;;;;;;;-143.21;91.22;71959.16;4944078;29;20233;-91
2024/01/19 01:34:50;;;;;;;10.67;6.30;;;;;;;-143.21;91.62;71965.09;4946404;29;20218;-94
2024/01/19 01:37:17;;;;;;;9.03;5.87;;;;;;;-143.21;91.22;71955.19;4940526;28;20298;-94
2024/01/19 01:39:43;;;;;;;8.93;6.20;;;;;;;-143.21;90.92;71957.16;4931795;29;20210;-94
2024/01/19 01:42:12;;;;;;;10.57;6.20;;;;;;;-143.21;91.10;71957.16;4915549;29;20681;-94
2024/01/19 01:44:39;;;;;;;9.57;6.77;;;;;;;-143.21;91.10;71959.16;4920867;29;20195;-94
2024/01/19 01:47:06;;;;;;;8.57;6.03;;;;;;;-143.21;90.65;71943.28;4916271;29;20298;-95
2024/01/19 01:49:33;;;;;;;11.50;6.33;;;;;;;-143.21;90.61;71953.19;4915109;29;20207;-94
2024/01/19 01:52:00;;;;;;;9.27;5.87;;;;;;;-143.21;90.38;71943.28;4920427;29;20217;-93
2024/01/19 01:54:28;;;;;;;9.23;6.73;;;;;;;-143.21;90.71;71957.16;4920334;29;20207;-93
2024/01/19 01:57:04;;;;;;;9.83;6.13;;;;;;;-143.21;91.34;71969.06;4928913;29;20224;-95
2024/01/19 01:59:39;;;;;;;10.80;6.67;;;;;;;-143.21;91.14;71971.06;4920499;29;20205;-95
2024/01/19 02:02:06;;;;;;;10.60;6.67;;;;;;;-143.21;91.19;71969.06;4915048;29;20209;-95
2024/01/19 02:04:34;;;;;;;9.73;6.70;;;;;;;-143.21;91.45;71977.00;4934066;29;20213;-93
2024/01/19 02:07:01;;;;;;;8.00;6.37;;;;;;;-143.21;91.03;71969.06;4926195;29;20241;-93
2024/01/19 02:09:28;;;;;;;10.33;6.40;;;;;;;-143.21;91.52;71967.09;4916674;29;20273;-94
2024/01/19 02:11:55;;;;;;;9.43;6.80;;;;;;;-143.21;91.40;71975.00;4919234;29;20212;-93
2024/01/19 02:14:22;;;;;;;14.30;7.67;;;;;;;-143.21;91.66;71971.06;4920740;29;20238;-94
2024/01/19 02:16:51;;;;;;;11.33;7.60;;;;;;;-143.21;90.46;71975.00;4931934;23;20241;-92
2024/01/19 02:19:18;;;;;;;10.17;7.03;;;;;;;-143.21;90.60;71978.97;4928525;29;20224;-93
2024/01/19 02:21:45;;;;;;;9.87;7.53;;;;;;;-143.21;91.35;71978.97;4929882;29;20207;-93
2024/01/19 02:24:18;;;;;;;12.07;7.60;;;;;;;-143.21;90.98;71980.97;4932319;29;20206;-95
2024/01/19 02:26:55;;;;;;;11.90;7.87;;;;;;;-143.21;91.24;71984.94;4930234;29;20240;-94
2024/01/19 02:29:22;;;;;;;11.93;7.87;;;;;;;-143.21;90.87;71990.88;4933868;29;20202;-93
2024/01/19 02:31:49;;;;;;;13.50;7.80;;;;;;;-143.21;91.08;71990.88;4930184;29;20290;-94
2024/01/19 02:34:15;;;;;;;10.47;7.87;;;;;;;-143.21;90.51;71992.88;4931274;29;20708;-94
2024/01/19 02:36:42;;;;;;;11.53;7.50;;;;;;;-143.21;90.71;71992.88;4935037;29;20201;-92
2024/01/19 02:39:09;;;;;;;11.53;7.93;;;;;;;-143.21;90.71;71990.88;4937963;29;20261;-93
2024/01/19 02:41:38;;;;;;;11.67;7.80;;;;;;;-143.21;90.60;72008.72;4932246;29;20193;-93
2024/01/19 02:44:05;;;;;;;9.83;7.33;;;;;;;-143.21;91.25;72026.56;4927536;29;20206;-93
2024/01/19 02:46:32;;;;;;;13.43;8.30;;;;;;;-143.21;91.84;72040.44;4926177;29;20232;-93
2024/01/19 02:48:59;;;;;;;11.77;7.80;;;;;;;-143.21;91.90;72028.56;4929828;29;20210;-93
2024/01/19 02:51:26;;;;;;;12.13;8.13;;;;;;;-143.21;91.73;72028.56;4930093;29;20229;-94
2024/01/19 02:53:53;;;;;;;13.77;7.60;;;;;;;-143.21;91.19;72046.41;4929654;29;20210;-93
2024/01/19 02:56:20;;;;;;;12.90;8.23;;;;;;;-143.21;91.67;72048.38;4930006;29;20206;-95
2024/01/19 02:58:48;;;;;;;13.67;8.20;;;;;;;-143.21;91.95;72054.34;4929219;29;20210;-94
2024/01/19 03:01:15;;;;;;;12.63;8.67;;;;;;;-143.21;92.00;72042.44;4934352;29;20213;-93
2024/01/19 03:03:42;;;;;;;13.27;9.23;;;;;;;-143.21;91.86;72058.31;4930760;29;20198;-94
2024/01/19 03:06:09;;;;;;;14.23;9.17;;;;;;;-143.21;91.49;72064.25;4932192;29;20697;-93
2024/01/19 03:08:36;;;;;;;13.73;9.40;;;;;;;-143.21;91.32;72064.25;4930342;29;20206;-94
2024/01/19 03:11:05;;;;;;;13.80;8.90;;;;;;;-143.21;91.81;72082.09;4927755;29;20744;-93
2024/01/19 03:13:51;;;;;;;13.03;8.63;;;;;;;-143.21;92.44;72078.13;4933602;29;20289;-94
2024/01/19 03:16:20;;;;;;;12.97;9.50;;;;;;;-143.21;92.23;72076.16;4940008;29;20506;-94
2024/01/19 03:19:00;;;;;;;;;;;;;;;;;;;;;
2024/01/19 03:21:28;;;;;;;14.80;9.53;;;;;;;-143.21;92.80;72080.13;4930434;29;20206;-94
2024/01/19 03:23:56;;;;;;;15.03;9.47;;;;;;;-143.21;92.41;72086.06;4944246;29;20238;-94
2024/01/19 03:26:23;;;;;;;14.70;9.60;;;;;;;-143.21;92.46;72094.00;4933112;29;20228;-94
2024/01/19 03:31:32;;;;;;;14.57;9.27;;;;;;;-143.21;92.62;72095.97;4929212;29;20210;-93
2024/01/19 03:33:58;;;;;;;14.43;9.50;;;;;;;-143.21;92.21;72103.91;4938192;28;20233;-92
2024/01/19 03:36:25;;;;;;;18.63;10.43;;;;;;;-143.21;92.13;72099.94;4939559;29;20217;-94
2024/01/19 03:38:52;;;;;;;18.93;10.77;;;;;;;-143.21;92.21;72101.94;4932692;29;20206;-94
2024/01/19 03:41:19;;;;;;;15.50;10.33;;;;;;;-143.21;91.95;72113.81;4929793;29;20229;-93
2024/01/19 03:43:46;;;;;;;18.83;10.67;;;;;;;-143.21;91.79;72123.75;4930202;29;20229;-93
2024/01/19 03:46:13;;;;;;;17.07;10.70;;;;;;;-143.21;92.25;72137.63;4927284;29;20233;-93
2024/01/19 03:48:41;;;;;;;17.90;11.97;;;;;;;-143.21;93.01;72135.63;4931755;29;20204;-94
2024/01/19 03:51:08;;;;;;;18.33;12.27;;;;;;;-143.21;92.94;72133.66;4930704;29;20296;-94
2024/01/19 03:53:35;;;;;;;19.10;13.23;;;;;;;-143.21;93.60;72141.59;4928977;29;20216;-94
2024/01/19 03:56:02;;;;;;;21.43;14.63;;;;;;;-143.21;92.99;72145.56;4929957;29;20213;-95
2024/01/19 03:58:29;;;;;;;21.47;12.80;;;;;;;-143.21;93.33;72145.56;4932291;29;20214;-92
2024/01/19 04:00:56;;;;;;;20.37;13.00;;;;;;;-143.21;93.35;72149.53;4933117;29;20266;-93
2024/01/19 04:03:23;;;;;;;20.10;13.03;;;;;;;-143.21;94.05;72157.44;4929780;29;20202;-96
2024/01/19 04:05:52;;;;;;;18.80;12.77;;;;;;;-143.21;93.31;72157.44;4903819;29;20354;-93
2024/01/19 04:08:19;;;;;;;23.63;14.60;;;;;;;-143.21;93.49;72155.47;4930752;29;20209;-93
2024/01/19 04:10:46;;;;;;;23.30;15.83;;;;;;;-143.21;93.02;72163.41;4929123;29;20198;-94
2024/01/19 04:13:13;;;;;;;18.90;13.07;;;;;;;-143.21;93.00;72169.34;4930915;29;20281;-94
2024/01/19 04:15:40;;;;;;;16.30;11.93;;;;;;;-143.21;93.44;72179.25;4935989;29;20230;-91
2024/01/19 04:18:07;;;;;;;19.13;12.87;;;;;;;-143.21;94.12;72179.25;4938201;23;20230;-90
2024/01/19 04:20:35;;;;;;;14.53;10.87;;;;;;;-143.21;94.41;72177.28;4934611;29;20202;-93
2024/01/19 04:23:04;;;;;;;18.20;11.27;;;;;;;-143.21;94.41;72167.38;4930204;29;20210;-95
2024/01/19 04:25:31;;;;;;;15.43;10.47;;;;;;;-143.21;94.19;72157.44;4932621;29;20202;-94
2024/01/19 04:27:58;;;;;;;13.77;10.23;;;;;;;-143.21;94.20;72165.38;4929757;29;20681;-94
2024/01/19 04:30:25;;;;;;;16.97;10.50;;;;;;;-143.21;94.57;72163.41;4932983;29;20314;-94
2024/01/19 04:32:52;;;;;;;18.17;10.90;;;;;;;-143.21;94.86;72163.41;4936866;29;20200;-94
2024/01/19 04:35:19;;;;;;;15.97;11.13;;;;;;;-143.21;94.75;72165.38;4936291;29;20426;-96
2024/01/19 04:37:46;;;;;;;17.03;11.53;;;;;;;-143.21;95.08;72183.22;4937418;23;20206;-95
2024/01/19 04:40:15;;;;;;;18.10;11.50;;;;;;;-143.21;94.72;72159.44;4908307;29;20235;-95
2024/01/19 04:42:42;;;;;;;16.97;11.97;;;;;;;-143.21;94.46;72157.44;4915574;29;20573;-94
2024/01/19 04:45:10;;;;;;;17.57;11.93;;;;;;;-143.21;93.63;72153.47;4911800;29;20210;-95
2024/01/19 04:47:37;;;;;;;18.90;12.63;;;;;;;-143.21;93.45;72153.47;4923185;23;20226;-94
2024/01/19 04:50:05;;;;;;;17.73;11.50;;;;;;;-143.21;93.13;72165.38;4917522;29;20206;-95
2024/01/19 04:52:32;;;;;;;19.77;13.27;;;;;;;-143.21;93.33;72181.25;4912482;29;20225;-95
2024/01/19 04:54:58;;;;;;;30.10;18.37;;;;;;;-143.21;93.62;72177.28;4924360;29;20230;-95
2024/01/19 04:57:27;;;;;;;28.33;18.77;;;;;;;-143.21;93.07;72179.25;4923025;29;20308;-93
2024/01/19 04:59:54;;;;;;;25.17;14.57;;;;;;;-143.21;93.13;72185.22;4916586;29;20234;-95
2024/01/19 05:02:21;;;;;;;21.50;14.43;;;;;;;-143.21;93.89;72187.19;4920824;29;20199;-94
2024/01/19 05:04:48;;;;;;;17.50;12.53;;;;;;;-143.21;93.99;72195.13;4936668;29;20218;-95
2024/01/19 05:07:15;;;;;;;18.30;12.07;;;;;;;-143.21;94.49;72197.13;4915787;29;20709;-96
2024/01/19 05:09:42;;;;;;;19.10;12.93;;;;;;;-143.21;94.94;72193.16;4923289;29;20664;-94
2024/01/19 05:12:09;;;;;;;18.70;12.37;;;;;;;-143.21;94.45;72185.22;4937943;29;20281;-92
2024/01/19 05:14:38;;;;;;;21.00;13.47;;;;;;;-143.21;94.86;72181.25;4941852;29;20203;-94
2024/01/19 05:17:05;;;;;;;19.17;13.87;;;;;;;-143.21;94.15;72173.31;4933355;29;20205;-95
2024/01/19 05:19:32;;;;;;;24.47;15.93;;;;;;;-143.21;93.89;72181.25;4917071;29;20199;-95
2024/01/19 05:21:59;;;;;;;25.33;16.33;;;;;;;-143.21;94.13;72197.13;4903260;29;20212;-96
2024/01/19 05:24:26;;;;;;;23.67;16.27;;;;;;;-143.21;94.13;72203.06;4917832;29;20211;-94
2024/01/19 05:26:53;;;;;;;25.00;16.27;;;;;;;-143.21;94.55;72191.16;4925993;29;20239;-95
2024/01/19 05:29:20;;;;;;;26.97;15.70;;;;;;;-143.21;94.35;72193.16;4915661;29;20207;-95
2024/01/19 05:31:49;;;;;;;22.43;15.13;;;;;;;-143.21;94.36;72201.09;4925212;29;20317;-96
2024/01/19 05:39:42;;;;;;;31.90;16.73;;;;;;;-143.21;94.48;72197.13;4916162;29;20198;-95
2024/01/19 05:42:09;;;;;;;23.50;13.43;;;;;;;-143.21;94.47;72207.03;4922914;29;20210;-95
2024/01/19 05:44:37;;;;;;;24.07;15.47;;;;;;;-143.21;94.42;72199.09;4915782;29;20218;-94
2024/01/19 05:47:06;;;;;;;21.37;13.13;;;;;;;-143.21;94.31;72214.97;4916077;29;20238;-95
2024/01/19 05:49:33;;;;;;;21.77;12.87;;;;;;;-143.21;94.54;72205.03;4933223;29;20186;-95
2024/01/19 05:54:36;;;;;;;20.00;12.60;;;;;;;-143.21;93.47;72181.25;5435646;23;20245;-96
2024/01/19 05:57:40;;;;;;;21.23;13.40;;;;;;;-143.21;93.38;72185.22;4981238;23;20240;-96
2024/01/19 06:00:18;;;;;;;25.00;13.07;;;;;;;-143.21;93.36;72187.19;4978518;23;20282;-95
2024/01/19 06:02:47;;;;;;;23.23;12.93;;;;;;;-143.21;93.04;72195.13;4928809;29;20202;-95
2024/01/19 06:05:13;;;;;;;21.13;14.73;;;;;;;-143.21;93.18;72199.09;4929116;29;20210;-94
2024/01/19 06:07:40;;;;;;;31.27;19.37;;;;;;;-143.21;93.87;72216.94;4924684;29;20229;-93
2024/01/19 06:10:09;;;;;;;33.20;20.50;;;;;;;-143.21;93.67;72224.88;4930077;29;20266;-94
2024/01/19 06:12:36;;;;;;;30.83;20.70;;;;;;;-143.21;93.89;72230.81;4930741;29;20214;-93
2024/01/19 06:15:03;;;;;;;31.67;20.10;;;;;;;-143.21;94.41;72220.91;4928987;29;20213;-95
2024/01/19 06:17:31;;;;;;;31.73;19.83;;;;;;;-143.21;94.53;72240.75;4928997;29;20735;-96
2024/01/19 06:20:00;;;;;;;32.17;19.90;;;;;;;-143.21;93.82;72240.75;4930372;29;20588;-94
2024/01/19 06:22:27;;;;;;;28.37;19.23;;;;;;;-143.21;94.33;72240.75;4926795;29;20326;-93
2024/01/19 06:24:54;;;;;;;29.77;17.70;;;;;;;-143.21;94.19;72262.56;4927567;29;20703;-92
2024/01/19 06:27:21;;;;;;;29.87;18.30;;;;;;;-143.21;93.96;72250.66;4926163;29;20234;-92
2024/01/19 06:29:48;;;;;;;25.00;16.63;;;;;;;-143.21;94.20;72264.53;4930009;29;20270;-92
2024/01/19 06:32:15;;;;;;;21.27;14.53;;;;;;;-143.21;94.32;72270.50;4936138;29;20198;-92
2024/01/19 06:34:44;;;;;;;17.67;12.77;;;;;;;-143.21;94.17;72272.47;4929467;29;20218;-94
2024/01/19 06:37:13;;;;;;;24.83;14.33;;;;;;;-143.21;94.36;72280.41;4910751;29;20745;-92
2024/01/19 06:39:40;;;;;;;22.23;12.70;;;;;;;-143.21;94.16;72266.53;4923615;29;20207;-93
2024/01/19 06:42:07;;;;;;;17.67;11.57;;;;;;;-143.21;94.14;72280.41;4918444;29;20279;-93
2024/01/19 06:44:33;;;;;;;20.17;11.23;;;;;;;-143.21;93.99;72284.38;4922876;29;20279;-94
2024/01/19 06:47:00;;;;;;;19.57;11.00;;;;;;;-143.21;93.93;72288.34;4921602;29;20226;-91
2024/01/19 06:49:27;;;;;;;17.80;10.70;;;;;;;-143.21;94.02;72290.31;4916834;29;20217;-93
2024/01/19 06:51:56;;;;;;;17.50;10.40;;;;;;;-143.21;93.75;72280.41;4911851;29;20206;-93
2024/01/19 06:54:28;;;;;;;15.57;9.93;;;;;;;-143.21;94.22;72294.28;4918300;29;20235;-91
2024/01/19 06:56:55;;;;;;;17.20;10.53;;;;;;;-143.21;93.26;72284.38;4914177;29;20211;-92
2024/01/19 06:59:22;;;;;;;17.27;10.67;;;;;;;-143.21;93.23;72274.47;4917398;29;20610;-93
2024/01/19 07:01:49;;;;;;;17.53;10.03;;;;;;;-143.21;93.42;72278.41;4899180;29;20198;-93
2024/01/19 07:04:15;;;;;;;16.70;10.20;;;;;;;-143.21;93.63;72282.38;4918520;29;20207;-91
2024/01/19 07:06:42;;;;;;;18.60;10.40;;;;;;;-143.21;93.70;72282.38;4917409;29;20226;-91
2024/01/19 07:09:09;;;;;;;16.43;10.77;;;;;;;-143.21;93.83;72282.38;4930953;29;20211;-93
2024/01/19 07:11:37;;;;;;;19.67;10.50;;;;;;;-143.21;93.98;72270.50;4923873;29;20198;-92
2024/01/19 07:14:04;;;;;;;16.73;11.00;;;;;;;-143.21;92.81;72274.47;4917692;29;20209;-92
2024/01/19 07:16:31;;;;;;;19.00;11.37;;;;;;;-143.21;92.73;72262.56;4899954;29;20213;-94
2024/01/19 07:18:58;;;;;;;18.20;11.40;;;;;;;-143.21;92.39;72258.59;4917682;29;20229;-94
2024/01/19 07:21:25;;;;;;;19.93;12.13;;;;;;;-143.21;92.18;72246.69;4916367;29;20278;-92
2024/01/19 07:23:52;;;;;;;19.90;11.90;;;;;;;-143.21;91.34;72246.69;4918441;29;20202;-92
2024/01/19 07:26:20;;;;;;;18.20;10.97;;;;;;;-143.21;91.40;72242.72;4913233;29;20226;-93
2024/01/19 07:28:48;;;;;;;21.33;11.37;;;;;;;-143.21;91.80;72234.78;4909285;29;20737;-91
2024/01/19 07:31:15;;;;;;;16.73;12.00;;;;;;;-143.21;91.69;72220.91;4920590;29;20225;-94
2024/01/19 07:33:42;;;;;;;22.37;12.33;;;;;;;-143.21;91.89;72216.94;4924522;29;20230;-93
2024/01/19 07:36:09;;;;;;;19.63;13.30;;;;;;;-143.21;91.62;72222.91;4908080;29;20210;-92
2024/01/19 07:38:38;;;;;;;22.00;14.63;;;;;;;-143.21;90.68;72209.00;4916984;29;20218;-94
2024/01/19 07:41:07;;;;;;;20.80;12.80;;;;;;;-143.21;90.93;72218.94;4911006;29;20273;-94
2024/01/19 07:43:33;;;;;;;23.53;13.93;;;;;;;-143.21;91.37;72222.91;4893981;29;21050;-94
2024/01/19 07:46:02;;;;;;;26.60;16.37;;;;;;;-143.21;91.39;72234.78;4915558;29;20727;-94
2024/01/19 07:48:28;;;;;;;43.10;21.70;;;;;;;-143.21;91.98;72224.88;4894882;29;20230;-94
2024/01/19 07:50:54;;;;;;;41.37;21.87;;;;;;;-143.21;91.89;72218.94;4915731;29;20698;-93
2024/01/19 07:53:21;;;;;;;48.93;27.13;;;;;;;-143.21;91.74;72214.97;4917284;29;20210;-91
2024/01/19 07:55:48;;;;;;;43.93;26.73;;;;;;;-143.21;92.00;72209.00;4918005;29;20210;-94
2024/01/19 07:58:15;;;;;;;44.00;28.10;;;;;;;-143.21;92.05;72199.09;4921506;29;20202;-93
2024/01/19 08:00:42;;;;;;;55.53;29.63;;;;;;;-143.21;91.08;72193.16;4925246;29;20268;-92
2024/01/19 08:03:10;;;;;;;45.83;27.83;;;;;;;-143.21;91.37;72185.22;4928152;29;20214;-93
2024/01/19 08:05:46;;;;;;;47.40;27.17;;;;;;;-143.21;90.95;72177.28;4913532;29;20278;-91
2024/01/19 08:08:13;;;;;;;50.23;25.30;;;;;;;-143.21;91.12;72149.53;4912413;29;20227;-88
2024/01/19 08:10:40;;;;;;;38.50;23.60;;;;;;;-143.21;90.13;72143.56;4910761;29;20460;-88
2024/01/19 08:13:07;;;;;;;33.67;21.83;;;;;;;-143.21;89.99;72135.63;4920760;29;20217;-88
2024/01/19 08:15:34;;;;;;;34.53;19.87;;;;;;;-143.21;89.80;72123.75;4911337;29;20199;-89
2024/01/19 08:18:01;;;;;;;24.17;17.27;;;;;;;-143.21;89.64;72121.75;4915394;29;20266;-88
2024/01/19 08:20:30;;;;;;;29.57;17.83;;;;;;;-143.21;89.11;72111.84;4910582;29;20211;-88
2024/01/19 08:22:57;;;;;;;28.50;16.40;;;;;;;-143.21;88.80;72117.78;4911816;29;20229;-88
2024/01/19 08:25:24;;;;;;;27.97;17.40;;;;;;;-143.21;87.81;72101.94;4910731;29;20254;-87
2024/01/19 08:27:51;;;;;;;36.07;19.20;;;;;;;-143.21;86.68;72103.91;4914534;29;20561;-87
2024/01/19 08:30:19;;;;;;;28.30;17.70;;;;;;;-143.21;86.40;72094.00;4925505;29;20252;-88
2024/01/19 08:32:46;;;;;;;28.03;17.23;;;;;;;-143.21;86.06;72090.03;4912424;29;20217;-87
2024/01/19 08:35:13;;;;;;;23.43;15.13;;;;;;;-143.21;85.15;72088.03;4917913;29;20685;-86
2024/01/19 08:37:42;;;;;;;29.10;18.90;;;;;;;-143.21;85.66;72090.03;4911960;29;20211;-85
2024/01/19 08:40:10;;;;;;;33.87;21.33;;;;;;;-143.21;86.22;72070.19;4911330;29;20211;-86
2024/01/19 08:42:38;;;;;;;33.27;20.80;;;;;;;-143.21;86.17;72058.31;4917486;29;20270;-89
2024/01/19 08:45:06;;;;;;;27.20;17.77;;;;;;;-143.21;84.74;72036.50;4916997;29;20625;-94
2024/01/19 08:47:33;;;;;;;21.87;15.37;;;;;;;-143.21;84.17;72044.41;4915083;29;20234;-93
2024/01/19 08:50:01;;;;;;;21.00;11.80;;;;;;;-143.21;84.62;72044.41;4910667;29;20207;-93
2024/01/19 08:52:29;;;;;;;18.90;12.00;;;;;;;-143.21;84.77;72040.44;4919018;29;20203;-94
2024/01/19 08:54:58;;;;;;;25.33;16.07;;;;;;;-143.21;83.81;72024.59;4899208;29;20206;-93
2024/01/19 08:57:25;;;;;;;30.70;18.60;;;;;;;-143.21;83.26;72014.69;4901578;29;20222;-92
2024/01/19 08:59:52;;;;;;;22.70;14.37;;;;;;;-143.21;82.58;72010.72;4911071;29;20273;-92
2024/01/19 09:05:14;;;;;;;21.77;10.30;;;;;;;-143.21;82.24;71992.88;4940850;29;20203;-94
2024/01/19 09:07:41;;;;;;;20.30;12.50;;;;;;;-143.21;81.37;71984.94;4919292;29;20356;-94
2024/01/19 09:20:04;;;;;;;;;;;;;;;;;;;;;
2024/01/19 09:37:45;;;;;;;18.07;10.20;;;;;;;-143.21;79.66;71858.03;4823383;29;20248;-96
2024/01/19 09:43:16;;;;;;;15.63;10.03;;;;;;;-143.21;79.24;71844.16;4833870;29;20198;-94
2024/01/19 10:10:30;;;;;;;15.03;9.83;;;;;;;-143.21;77.21;71653.78;4862892;29;20269;-94
2024/01/19 10:19:09;;;;;;;;;;;;;;;;;;;;;
2024/01/19 10:24:21;;;;;;;16.37;10.17;;;;;;;-143.21;59.70;70965.84;4927084;29;20245;-93
2024/01/19 10:30:09;;;;;;;21.45;11.13;;;;;;;-143.21;49.36;70569.38;4901456;29;20267;-92
2024/01/19 10:35:30;;;;;;;9.80;5.55;;;;;;;-143.21;44.04;70561.47;4902172;29;20556;-93
2024/01/19 10:38:06;;;;;;;9.70;5.10;;;;;;;-143.21;42.59;70472.25;4916214;29;20214;-93
2024/01/19 10:40:35;;;;;;;9.57;4.75;;;;;;;-143.21;40.64;70513.88;4918514;29;20717;-93
2024/01/19 10:43:06;;;;;;;13.85;3.70;;;;;;;-143.21;41.70;70543.63;4918552;29;20222;-93
2024/01/19 10:45:35;;;;;;;5.68;2.30;;;;;;;-143.21;40.33;70480.19;4918216;29;20215;-95
2024/01/19 10:54:03;;;;;;;7.25;4.35;;;;;;;-143.21;38.26;70389.03;4942009;23;20293;-93
2024/01/19 10:56:43;;;;;;;11.18;3.63;;;;;;;-143.21;38.46;70424.69;4922803;29;20226;-96
2024/01/19 10:59:38;;;;;;;9.75;2.47;;;;;;;-143.21;37.80;70444.53;4937274;29;20233;-95
2024/01/19 11:02:06;;;;;;;7.50;2.47;;;;;;;-143.21;37.88;70478.22;4928475;29;20201;-93
2024/01/19 11:04:44;;;;;;;6.15;2.60;;;;;;;-143.21;39.16;70573.34;4934318;23;20671;-95
2024/01/19 11:07:27;;;;;;;5.00;2.30;;;;;;;-143.21;40.64;70741.84;4936216;29;20293;-93
2024/01/19 11:10:12;;;;;;;5.47;1.90;;;;;;;-143.21;42.57;70825.09;4923099;29;20213;-93
2024/01/19 11:12:55;;;;;;;7.07;1.90;;;;;;;-143.21;42.29;70793.38;4926733;29;20195;-92
2024/01/19 11:15:32;;;;;;;3.03;1.85;;;;;;;-143.21;42.19;70779.50;4928992;29;20239;-96
2024/01/19 11:18:15;;;;;;;10.18;2.15;;;;;;;-143.21;42.07;70848.88;4938453;28;20207;-94
2024/01/19 11:21:01;;;;;;;9.18;2.25;;;;;;;-143.21;42.92;70862.75;4917989;29;20216;-92
2024/01/19 11:23:29;;;;;;;5.38;1.90;;;;;;;-143.21;42.11;70767.63;4929039;29;20701;-92
2024/01/19 11:26:08;;;;;;;6.28;2.40;;;;;;;-143.21;40.77;70656.59;4935951;29;20206;-94
2024/01/19 11:29:00;;;;;;;6.18;2.88;;;;;;;-143.21;39.22;70549.56;4919959;29;20602;-93
2024/01/19 11:34:44;;;;;;;3.45;1.85;;;;;;;-143.21;38.08;70541.63;4894947;29;20247;-91
2024/01/19 11:37:44;;;;;;;4.90;1.80;;;;;;;-143.21;38.96;70626.88;4901351;29;20218;-92
2024/01/19 11:40:49;;;;;;;11.73;2.30;;;;;;;-143.21;39.64;70597.13;4909962;29;20246;-92
2024/01/19 11:43:53;;;;;;;5.00;2.50;;;;;;;-143.21;39.14;70579.31;4919668;29;20223;-91
2024/01/19 11:46:42;;;;;;;10.55;2.30;;;;;;;-143.21;39.23;70565.44;4915649;29;20658;-93
2024/01/19 11:49:09;;;;;;;9.05;2.05;;;;;;;-143.21;38.59;70505.97;4908318;29;20290;-94
2024/01/19 11:51:37;;;;;;;7.72;2.20;;;;;;;-143.21;38.27;70438.56;4916864;29;20227;-92
2024/01/19 11:54:16;;;;;;;7.85;2.20;;;;;;;-143.21;37.82;70430.66;4912026;29;20279;-93
2024/01/19 11:56:43;;;;;;;7.38;2.05;;;;;;;-143.21;37.58;70416.78;4908242;23;20342;-94
2024/01/19 11:59:10;;;;;;;5.53;2.10;;;;;;;-143.21;37.89;70432.63;4948812;29;20225;-93
2024/01/19 12:01:58;;;;;;;6.75;2.00;;;;;;;-143.21;37.55;70424.69;4964220;23;20257;-94
2024/01/19 12:12:41;;;;;;;4.55;2.00;;;;;;;-143.21;40.40;70694.25;5063490;27;1917617;-92
2024/01/19 12:18:04;;;;;;;5.80;2.20;;;;;;;-143.21;41.83;70837.00;5108956;28;20203;-92
2024/01/19 12:20:33;;;;;;;8.68;2.13;;;;;;;-143.21;43.26;70894.47;5116828;28;20195;-93
2024/01/19 12:23:01;;;;;;;6.15;2.22;;;;;;;-143.21;43.85;70934.13;5121905;28;20199;-95
2024/01/19 12:25:28;;;;;;;7.22;2.10;;;;;;;-143.21;44.61;70965.84;5116068;28;20224;-94
2024/01/19 12:30:55;;;;;;;8.65;2.00;;;;;;;-143.21;46.79;71088.75;5119124;28;20220;-94
2024/01/19 12:33:41;;;;;;;7.00;2.15;;;;;;;-143.21;47.37;71152.19;5108439;28;20276;-93
2024/01/19 12:36:13;;;;;;;4.47;2.00;;;;;;;-143.21;48.43;71197.78;5114651;22;20217;-94
2024/01/19 12:41:30;;;;;;;8.83;2.13;;;;;;;-143.21;49.37;71227.53;5086214;28;20209;-92
2024/01/19 12:44:00;;;;;;;6.17;2.47;;;;;;;-143.21;49.60;71231.50;5079830;28;20217;-91
2024/01/19 12:46:32;;;;;;;7.07;2.13;;;;;;;-143.21;49.84;71227.53;5088949;28;20600;-91
2024/01/19 12:49:10;;;;;;;6.43;2.03;;;;;;;-143.21;50.13;71245.38;5087356;28;20197;-92
2024/01/19 12:51:46;;;;;;;8.37;2.50;;;;;;;-143.21;50.77;71265.19;5088274;28;20278;-93
2024/01/19 12:54:15;;;;;;;6.47;2.30;;;;;;;-143.21;50.08;71275.09;5089649;28;20188;-95
2024/01/19 12:56:42;;;;;;;6.47;2.30;;;;;;;-143.21;50.14;71263.22;5100409;28;20203;-91
2024/01/19 12:59:16;;;;;;;4.70;1.90;;;;;;;-143.21;50.09;71243.38;5096705;28;20239;-92
2024/01/19 13:01:56;;;;;;;7.37;2.20;;;;;;;-143.21;48.68;71179.94;5088823;28;20193;-92
2024/01/19 13:04:23;;;;;;;6.97;1.93;;;;;;;-143.21;48.15;71154.16;5073201;28;20204;-92
2024/01/19 13:06:51;;;;;;;6.70;2.30;;;;;;;-143.21;47.13;71102.63;5073199;28;20292;-92
2024/01/19 13:09:18;;;;;;;6.70;2.40;;;;;;;-143.21;45.94;71017.38;5084312;28;20207;-93
2024/01/19 13:11:47;;;;;;;7.13;1.83;;;;;;;-143.21;44.56;70936.09;5087804;28;20235;-94
2024/01/19 13:14:34;;;;;;;8.82;2.28;;;;;;;-143.21;43.09;70860.78;5087561;28;20208;-92
2024/01/19 13:19:47;;;;;;;5.63;2.42;;;;;;;-143.21;40.30;70729.94;5079198;28;20205;-94
2024/01/19 13:22:14;;;;;;;4.93;2.47;;;;;;;-143.21;40.19;70735.91;5074780;28;20197;-91